sensor_id;sensor_type;location;lat;lon;timestamp;temperature;humidity
36924;DHT22;22841;50.252;18.688;2022-08-19T00:02:13;22.30;99.90
36924;DHT22;22841;50.252;18.688;2022-08-19T00:04:39;22.20;99.90
36924;DHT22;22841;50.252;18.688;2022-08-19T00:07:06;22.20;99.90
36924;DHT22;22841;50.252;18.688;2022-08-19T00:09:33;22.20;99.90
36924;DHT22;22841;50.252;18.688;2022-08-19T00:11:59;22.20;99.90
36924;DHT22;22841;50.252;18.688;2022-08-19T00:14:27;22.10;99.90
36924;DHT22;22841;50.252;18.688;2022-08-19T00:16:57;22.10;1.00
36924;DHT22;22841;50.252;18.688;2022-08-19T00:19:25;22.00;1.00
36924;DHT22;22841;50.252;18.688;2022-08-19T00:21:52;22.00;1.50
36924;DHT22;22841;50.252;18.688;2022-08-19T00:24:18;22.00;1.00
36924;DHT22;22841;50.252;18.688;2022-08-19T00:26:45;22.10;1.00
36924;DHT22;22841;50.252;18.688;2022-08-19T00:29:13;22.10;1.00
36924;DHT22;22841;50.252;18.688;2022-08-19T00:31:40;22.00;58.90
36924;DHT22;22841;50.252;18.688;2022-08-19T00:34:07;22.00;98.50
36924;DHT22;22841;50.252;18.688;2022-08-19T00:36:33;21.90;99.90
36924;DHT22;22841;50.252;18.688;2022-08-19T00:39:00;22.00;78.10
36924;DHT22;22841;50.252;18.688;2022-08-19T00:41:26;21.90;99.90
36924;DHT22;22841;50.252;18.688;2022-08-19T00:44:14;21.90;99.90
36924;DHT22;22841;50.252;18.688;2022-08-19T00:46:44;22.00;99.90
36924;DHT22;22841;50.252;18.688;2022-08-19T00:49:16;22.00;75.00
36924;DHT22;22841;50.252;18.688;2022-08-19T00:51:47;22.00;65.60
36924;DHT22;22841;50.252;18.688;2022-08-19T00:54:15;21.90;99.90
36924;DHT22;22841;50.252;18.688;2022-08-19T00:56:41;21.90;92.30
36924;DHT22;22841;50.252;18.688;2022-08-19T00:59:09;21.90;84.30
36924;DHT22;22841;50.252;18.688;2022-08-19T01:01:38;21.90;93.50
36924;DHT22;22841;50.252;18.688;2022-08-19T01:04:06;21.90;99.90
36924;DHT22;22841;50.252;18.688;2022-08-19T01:06:33;21.80;99.90
36924;DHT22;22841;50.252;18.688;2022-08-19T01:09:01;21.80;99.90
36924;DHT22;22841;50.252;18.688;2022-08-19T01:11:28;21.70;99.90
36924;DHT22;22841;50.252;18.688;2022-08-19T01:13:55;21.70;99.90
36924;DHT22;22841;50.252;18.688;2022-08-19T01:16:24;21.70;99.90
36924;DHT22;22841;50.252;18.688;2022-08-19T01:18:51;21.60;99.90
36924;DHT22;22841;50.252;18.688;2022-08-19T01:21:31;21.60;99.90
36924;DHT22;22841;50.252;18.688;2022-08-19T01:23:58;21.60;99.90
36924;DHT22;22841;50.252;18.688;2022-08-19T01:26:25;21.50;99.90
36924;DHT22;22841;50.252;18.688;2022-08-19T01:28:55;21.50;99.90
36924;DHT22;22841;50.252;18.688;2022-08-19T01:31:25;21.50;99.90
36924;DHT22;22841;50.252;18.688;2022-08-19T01:33:54;21.40;99.90
36924;DHT22;22841;50.252;18.688;2022-08-19T01:36:29;21.30;99.90
36924;DHT22;22841;50.252;18.688;2022-08-19T01:38:56;21.30;1.00
36924;DHT22;22841;50.252;18.688;2022-08-19T01:41:22;21.30;1.00
36924;DHT22;22841;50.252;18.688;2022-08-19T01:43:50;21.30;1.00
36924;DHT22;22841;50.252;18.688;2022-08-19T01:46:18;21.30;1.00
36924;DHT22;22841;50.252;18.688;2022-08-19T01:48:45;21.20;1.00
36924;DHT22;22841;50.252;18.688;2022-08-19T01:51:12;21.30;1.00
36924;DHT22;22841;50.252;18.688;2022-08-19T01:53:39;21.30;1.00
36924;DHT22;22841;50.252;18.688;2022-08-19T01:56:08;21.30;1.00
36924;DHT22;22841;50.252;18.688;2022-08-19T01:58:38;21.20;1.00
36924;DHT22;22841;50.252;18.688;2022-08-19T02:01:07;21.20;1.00
36924;DHT22;22841;50.252;18.688;2022-08-19T02:03:34;21.20;1.00
36924;DHT22;22841;50.252;18.688;2022-08-19T02:06:03;21.10;1.00
36924;DHT22;22841;50.252;18.688;2022-08-19T02:08:32;21.10;1.00
36924;DHT22;22841;50.252;18.688;2022-08-19T02:11:00;21.10;1.00
36924;DHT22;22841;50.252;18.688;2022-08-19T02:13:26;21.10;1.00
36924;DHT22;22841;50.252;18.688;2022-08-19T02:15:53;21.10;1.00
36924;DHT22;22841;50.252;18.688;2022-08-19T02:18:19;21.10;1.00
36924;DHT22;22841;50.252;18.688;2022-08-19T02:20:45;21.10;1.00
36924;DHT22;22841;50.252;18.688;2022-08-19T02:23:14;21.10;1.00
36924;DHT22;22841;50.252;18.688;2022-08-19T02:25:45;21.10;1.00
36924;DHT22;22841;50.252;18.688;2022-08-19T02:28:12;21.10;1.00
36924;DHT22;22841;50.252;18.688;2022-08-19T02:30:40;21.10;1.00
36924;DHT22;22841;50.252;18.688;2022-08-19T02:33:07;21.10;1.00
36924;DHT22;22841;50.252;18.688;2022-08-19T02:35:33;21.00;1.00
36924;DHT22;22841;50.252;18.688;2022-08-19T02:37:59;21.00;1.00
36924;DHT22;22841;50.252;18.688;2022-08-19T02:40:52;21.10;1.00
36924;DHT22;22841;50.252;18.688;2022-08-19T02:43:18;21.10;1.00
36924;DHT22;22841;50.252;18.688;2022-08-19T02:45:48;21.10;1.00
36924;DHT22;22841;50.252;18.688;2022-08-19T02:48:18;21.00;1.00
36924;DHT22;22841;50.252;18.688;2022-08-19T02:50:45;21.00;1.00
36924;DHT22;22841;50.252;18.688;2022-08-19T02:53:12;21.10;1.00
36924;DHT22;22841;50.252;18.688;2022-08-19T02:55:46;21.00;1.00
36924;DHT22;22841;50.252;18.688;2022-08-19T02:58:16;21.00;1.00
36924;DHT22;22841;50.252;18.688;2022-08-19T03:00:48;21.00;1.00
36924;DHT22;22841;50.252;18.688;2022-08-19T03:03:15;21.00;1.00
36924;DHT22;22841;50.252;18.688;2022-08-19T03:05:42;21.00;1.00
36924;DHT22;22841;50.252;18.688;2022-08-19T03:08:09;20.90;1.00
36924;DHT22;22841;50.252;18.688;2022-08-19T03:10:43;20.90;1.00
36924;DHT22;22841;50.252;18.688;2022-08-19T03:13:15;20.90;1.00
36924;DHT22;22841;50.252;18.688;2022-08-19T03:15:43;20.90;1.00
36924;DHT22;22841;50.252;18.688;2022-08-19T03:18:09;20.80;1.00
36924;DHT22;22841;50.252;18.688;2022-08-19T03:20:44;20.80;1.00
36924;DHT22;22841;50.252;18.688;2022-08-19T03:23:11;20.90;1.00
36924;DHT22;22841;50.252;18.688;2022-08-19T03:25:44;20.90;1.00
36924;DHT22;22841;50.252;18.688;2022-08-19T03:28:12;20.80;1.00
36924;DHT22;22841;50.252;18.688;2022-08-19T03:30:40;20.80;1.00
36924;DHT22;22841;50.252;18.688;2022-08-19T03:33:10;20.70;1.00
36924;DHT22;22841;50.252;18.688;2022-08-19T03:35:38;20.70;1.00
36924;DHT22;22841;50.252;18.688;2022-08-19T03:38:05;20.70;1.00
36924;DHT22;22841;50.252;18.688;2022-08-19T03:40:32;20.80;1.00
36924;DHT22;22841;50.252;18.688;2022-08-19T03:43:02;20.80;1.00
36924;DHT22;22841;50.252;18.688;2022-08-19T03:45:28;20.80;1.00
36924;DHT22;22841;50.252;18.688;2022-08-19T03:47:55;20.70;1.00
36924;DHT22;22841;50.252;18.688;2022-08-19T03:50:21;20.80;1.00
36924;DHT22;22841;50.252;18.688;2022-08-19T03:52:51;20.70;1.00
36924;DHT22;22841;50.252;18.688;2022-08-19T03:55:18;20.70;1.00
36924;DHT22;22841;50.252;18.688;2022-08-19T03:57:44;20.70;1.00
36924;DHT22;22841;50.252;18.688;2022-08-19T04:00:12;20.70;1.00
36924;DHT22;22841;50.252;18.688;2022-08-19T04:02:39;20.70;1.00
36924;DHT22;22841;50.252;18.688;2022-08-19T04:05:06;20.70;1.00
36924;DHT22;22841;50.252;18.688;2022-08-19T04:07:33;20.70;1.00
36924;DHT22;22841;50.252;18.688;2022-08-19T04:09:59;20.70;1.00
36924;DHT22;22841;50.252;18.688;2022-08-19T04:12:26;20.60;7.20
36924;DHT22;22841;50.252;18.688;2022-08-19T04:14:52;20.60;1.00
36924;DHT22;22841;50.252;18.688;2022-08-19T04:17:18;20.60;6.30
36924;DHT22;22841;50.252;18.688;2022-08-19T04:19:44;20.70;1.00
36924;DHT22;22841;50.252;18.688;2022-08-19T04:22:10;20.70;1.00
36924;DHT22;22841;50.252;18.688;2022-08-19T04:24:37;20.80;1.00
36924;DHT22;22841;50.252;18.688;2022-08-19T04:27:04;20.80;1.00
36924;DHT22;22841;50.252;18.688;2022-08-19T04:29:31;20.90;1.00
36924;DHT22;22841;50.252;18.688;2022-08-19T04:31:58;20.90;1.00
36924;DHT22;22841;50.252;18.688;2022-08-19T04:34:27;20.90;1.00
36924;DHT22;22841;50.252;18.688;2022-08-19T04:36:56;20.90;1.00
36924;DHT22;22841;50.252;18.688;2022-08-19T04:39:30;21.00;1.00
36924;DHT22;22841;50.252;18.688;2022-08-19T04:42:17;21.00;1.00
36924;DHT22;22841;50.252;18.688;2022-08-19T04:45:03;21.10;1.00
36924;DHT22;22841;50.252;18.688;2022-08-19T04:47:30;21.10;1.00
36924;DHT22;22841;50.252;18.688;2022-08-19T04:49:57;21.10;1.00
36924;DHT22;22841;50.252;18.688;2022-08-19T04:52:23;21.20;1.00
36924;DHT22;22841;50.252;18.688;2022-08-19T04:54:49;21.20;1.00
36924;DHT22;22841;50.252;18.688;2022-08-19T04:57:15;21.20;1.00
36924;DHT22;22841;50.252;18.688;2022-08-19T04:59:41;21.30;1.00
36924;DHT22;22841;50.252;18.688;2022-08-19T05:02:09;21.30;1.00
36924;DHT22;22841;50.252;18.688;2022-08-19T05:04:36;21.40;1.00
36924;DHT22;22841;50.252;18.688;2022-08-19T05:07:05;21.30;1.00
36924;DHT22;22841;50.252;18.688;2022-08-19T05:09:32;21.40;1.00
36924;DHT22;22841;50.252;18.688;2022-08-19T05:11:59;21.40;1.00
36924;DHT22;22841;50.252;18.688;2022-08-19T05:14:25;21.50;1.00
36924;DHT22;22841;50.252;18.688;2022-08-19T05:16:51;21.50;1.00
36924;DHT22;22841;50.252;18.688;2022-08-19T05:19:17;21.50;1.00
36924;DHT22;22841;50.252;18.688;2022-08-19T05:22:02;21.50;1.00
36924;DHT22;22841;50.252;18.688;2022-08-19T05:24:46;21.50;1.00
36924;DHT22;22841;50.252;18.688;2022-08-19T05:27:12;21.60;1.00
36924;DHT22;22841;50.252;18.688;2022-08-19T05:29:39;21.60;1.00
36924;DHT22;22841;50.252;18.688;2022-08-19T05:32:06;21.60;1.00
36924;DHT22;22841;50.252;18.688;2022-08-19T05:34:36;21.70;1.00
36924;DHT22;22841;50.252;18.688;2022-08-19T05:37:04;21.70;1.00
36924;DHT22;22841;50.252;18.688;2022-08-19T05:39:33;21.80;1.00
36924;DHT22;22841;50.252;18.688;2022-08-19T05:42:03;21.80;1.00
36924;DHT22;22841;50.252;18.688;2022-08-19T05:44:31;21.80;1.00
36924;DHT22;22841;50.252;18.688;2022-08-19T05:46:58;21.90;1.00
36924;DHT22;22841;50.252;18.688;2022-08-19T05:49:25;22.00;1.00
36924;DHT22;22841;50.252;18.688;2022-08-19T05:51:52;22.00;1.00
36924;DHT22;22841;50.252;18.688;2022-08-19T05:54:21;22.10;1.00
36924;DHT22;22841;50.252;18.688;2022-08-19T05:56:50;22.20;1.00
36924;DHT22;22841;50.252;18.688;2022-08-19T05:59:17;22.30;99.90
36924;DHT22;22841;50.252;18.688;2022-08-19T06:01:45;22.40;99.90
36924;DHT22;22841;50.252;18.688;2022-08-19T06:04:12;22.40;99.90
36924;DHT22;22841;50.252;18.688;2022-08-19T06:06:45;22.40;99.90
36924;DHT22;22841;50.252;18.688;2022-08-19T06:09:12;22.50;99.90
36924;DHT22;22841;50.252;18.688;2022-08-19T06:11:56;22.50;99.90
36924;DHT22;22841;50.252;18.688;2022-08-19T06:14:31;22.60;99.90
36924;DHT22;22841;50.252;18.688;2022-08-19T06:16:58;22.70;99.90
36924;DHT22;22841;50.252;18.688;2022-08-19T06:19:26;22.80;99.90
36924;DHT22;22841;50.252;18.688;2022-08-19T06:21:52;22.80;99.90
36924;DHT22;22841;50.252;18.688;2022-08-19T06:24:21;22.90;99.90
36924;DHT22;22841;50.252;18.688;2022-08-19T06:26:51;23.10;99.90
36924;DHT22;22841;50.252;18.688;2022-08-19T06:29:21;23.10;1.00
36924;DHT22;22841;50.252;18.688;2022-08-19T06:31:51;23.20;1.00
36924;DHT22;22841;50.252;18.688;2022-08-19T06:34:18;23.30;99.90
36924;DHT22;22841;50.252;18.688;2022-08-19T06:36:47;23.30;10.50
36924;DHT22;22841;50.252;18.688;2022-08-19T06:39:19;23.50;99.90
36924;DHT22;22841;50.252;18.688;2022-08-19T06:41:48;23.60;99.10
36924;DHT22;22841;50.252;18.688;2022-08-19T06:44:15;23.60;99.90
36924;DHT22;22841;50.252;18.688;2022-08-19T06:46:42;23.70;99.90
36924;DHT22;22841;50.252;18.688;2022-08-19T06:49:09;23.90;1.00
36924;DHT22;22841;50.252;18.688;2022-08-19T06:51:41;24.00;99.90
36924;DHT22;22841;50.252;18.688;2022-08-19T06:54:08;24.10;99.90
36924;DHT22;22841;50.252;18.688;2022-08-19T06:56:35;24.20;99.90
36924;DHT22;22841;50.252;18.688;2022-08-19T06:59:07;24.30;32.90
36924;DHT22;22841;50.252;18.688;2022-08-19T07:01:42;24.30;99.90
36924;DHT22;22841;50.252;18.688;2022-08-19T07:04:12;24.30;13.30
36924;DHT22;22841;50.252;18.688;2022-08-19T07:06:39;24.40;99.90
36924;DHT22;22841;50.252;18.688;2022-08-19T07:09:07;24.50;1.00
36924;DHT22;22841;50.252;18.688;2022-08-19T07:11:34;24.60;99.90
36924;DHT22;22841;50.252;18.688;2022-08-19T07:14:01;24.70;1.00
36924;DHT22;22841;50.252;18.688;2022-08-19T07:16:27;24.70;99.90
36924;DHT22;22841;50.252;18.688;2022-08-19T07:18:54;24.80;99.90
36924;DHT22;22841;50.252;18.688;2022-08-19T07:21:26;24.80;8.60
36924;DHT22;22841;50.252;18.688;2022-08-19T07:23:54;24.90;99.90
36924;DHT22;22841;50.252;18.688;2022-08-19T07:26:28;25.00;99.90
36924;DHT22;22841;50.252;18.688;2022-08-19T07:28:55;25.10;99.90
36924;DHT22;22841;50.252;18.688;2022-08-19T07:31:23;25.20;99.90
36924;DHT22;22841;50.252;18.688;2022-08-19T07:33:52;25.30;99.90
36924;DHT22;22841;50.252;18.688;2022-08-19T07:36:25;25.50;99.90
36924;DHT22;22841;50.252;18.688;2022-08-19T07:38:51;25.60;99.90
36924;DHT22;22841;50.252;18.688;2022-08-19T07:41:24;25.70;50.40
36924;DHT22;22841;50.252;18.688;2022-08-19T07:43:50;25.80;1.00
36924;DHT22;22841;50.252;18.688;2022-08-19T07:46:18;26.00;99.90
36924;DHT22;22841;50.252;18.688;2022-08-19T07:48:47;26.10;1.00
36924;DHT22;22841;50.252;18.688;2022-08-19T07:51:16;26.10;99.90
36924;DHT22;22841;50.252;18.688;2022-08-19T07:53:43;26.30;1.00
36924;DHT22;22841;50.252;18.688;2022-08-19T07:56:11;26.30;37.30
36924;DHT22;22841;50.252;18.688;2022-08-19T07:58:43;26.40;12.50
36924;DHT22;22841;50.252;18.688;2022-08-19T08:01:13;26.50;99.90
36924;DHT22;22841;50.252;18.688;2022-08-19T08:03:39;26.60;1.00
36924;DHT22;22841;50.252;18.688;2022-08-19T08:06:24;26.80;99.90
36924;DHT22;22841;50.252;18.688;2022-08-19T08:09:09;26.90;99.90
36924;DHT22;22841;50.252;18.688;2022-08-19T08:12:26;27.10;99.90
36924;DHT22;22841;50.252;18.688;2022-08-19T08:14:47;27.30;99.90
36924;DHT22;22841;50.252;18.688;2022-08-19T08:17:15;27.60;99.90
36924;DHT22;22841;50.252;18.688;2022-08-19T08:19:42;27.70;1.00
36924;DHT22;22841;50.252;18.688;2022-08-19T08:22:09;27.70;1.00
36924;DHT22;22841;50.252;18.688;2022-08-19T08:24:56;27.70;54.10
36924;DHT22;22841;50.252;18.688;2022-08-19T08:27:24;27.60;99.90
36924;DHT22;22841;50.252;18.688;2022-08-19T08:29:50;27.60;99.90
36924;DHT22;22841;50.252;18.688;2022-08-19T08:32:16;27.50;99.90
36924;DHT22;22841;50.252;18.688;2022-08-19T08:34:42;27.50;99.90
36924;DHT22;22841;50.252;18.688;2022-08-19T08:37:09;27.50;73.10
36924;DHT22;22841;50.252;18.688;2022-08-19T08:39:35;27.50;99.90
36924;DHT22;22841;50.252;18.688;2022-08-19T08:45:00;27.70;41.80
36924;DHT22;22841;50.252;18.688;2022-08-19T08:47:40;27.70;36.20
36924;DHT22;22841;50.252;18.688;2022-08-19T08:50:09;27.70;99.90
36924;DHT22;22841;50.252;18.688;2022-08-19T08:52:44;27.80;99.90
36924;DHT22;22841;50.252;18.688;2022-08-19T08:55:15;27.90;74.00
36924;DHT22;22841;50.252;18.688;2022-08-19T09:00:26;28.10;1.00
36924;DHT22;22841;50.252;18.688;2022-08-19T09:02:57;28.20;1.00
36924;DHT22;22841;50.252;18.688;2022-08-19T09:05:35;28.20;1.00
36924;DHT22;22841;50.252;18.688;2022-08-19T09:10:52;28.20;1.00
36924;DHT22;22841;50.252;18.688;2022-08-19T09:16:13;28.30;1.00
36924;DHT22;22841;50.252;18.688;2022-08-19T09:18:49;28.40;1.00
36924;DHT22;22841;50.252;18.688;2022-08-19T09:21:26;28.50;99.90
36924;DHT22;22841;50.252;18.688;2022-08-19T09:23:53;28.50;99.90
36924;DHT22;22841;50.252;18.688;2022-08-19T09:26:22;28.60;99.90
36924;DHT22;22841;50.252;18.688;2022-08-19T09:28:50;28.50;99.90
36924;DHT22;22841;50.252;18.688;2022-08-19T09:31:21;28.40;1.00
36924;DHT22;22841;50.252;18.688;2022-08-19T09:33:48;28.50;99.90
36924;DHT22;22841;50.252;18.688;2022-08-19T09:36:17;28.50;99.90
36924;DHT22;22841;50.252;18.688;2022-08-19T09:38:44;28.60;99.90
36924;DHT22;22841;50.252;18.688;2022-08-19T09:41:16;28.70;99.90
36924;DHT22;22841;50.252;18.688;2022-08-19T09:43:48;28.70;99.90
36924;DHT22;22841;50.252;18.688;2022-08-19T09:46:15;28.70;99.90
36924;DHT22;22841;50.252;18.688;2022-08-19T09:48:43;28.70;99.90
36924;DHT22;22841;50.252;18.688;2022-08-19T09:51:16;28.70;99.90
36924;DHT22;22841;50.252;18.688;2022-08-19T09:53:46;28.70;99.90
36924;DHT22;22841;50.252;18.688;2022-08-19T09:56:13;28.70;99.90
36924;DHT22;22841;50.252;18.688;2022-08-19T09:58:40;28.90;1.00
36924;DHT22;22841;50.252;18.688;2022-08-19T10:01:07;29.00;1.00
36924;DHT22;22841;50.252;18.688;2022-08-19T10:03:35;29.30;99.90
36924;DHT22;22841;50.252;18.688;2022-08-19T10:06:03;29.40;99.90
36924;DHT22;22841;50.252;18.688;2022-08-19T10:08:36;29.60;99.90
36924;DHT22;22841;50.252;18.688;2022-08-19T10:11:03;29.80;99.90
36924;DHT22;22841;50.252;18.688;2022-08-19T10:13:31;29.80;99.90
36924;DHT22;22841;50.252;18.688;2022-08-19T10:16:07;29.90;99.90
36924;DHT22;22841;50.252;18.688;2022-08-19T10:18:34;30.20;99.90
36924;DHT22;22841;50.252;18.688;2022-08-19T10:21:07;30.30;99.90
36924;DHT22;22841;50.252;18.688;2022-08-19T10:23:35;30.30;99.90
36924;DHT22;22841;50.252;18.688;2022-08-19T10:26:04;30.10;99.90
36924;DHT22;22841;50.252;18.688;2022-08-19T10:28:33;29.90;99.90
36924;DHT22;22841;50.252;18.688;2022-08-19T10:31:04;29.80;99.90
36924;DHT22;22841;50.252;18.688;2022-08-19T10:33:31;29.80;99.90
36924;DHT22;22841;50.252;18.688;2022-08-19T10:36:06;29.80;99.90
36924;DHT22;22841;50.252;18.688;2022-08-19T10:38:33;29.90;99.90
36924;DHT22;22841;50.252;18.688;2022-08-19T10:41:14;30.10;99.90
36924;DHT22;22841;50.252;18.688;2022-08-19T10:43:41;30.20;99.90
36924;DHT22;22841;50.252;18.688;2022-08-19T10:46:10;30.00;99.90
36924;DHT22;22841;50.252;18.688;2022-08-19T10:48:36;30.00;99.90
36924;DHT22;22841;50.252;18.688;2022-08-19T10:51:03;30.00;99.90
36924;DHT22;22841;50.252;18.688;2022-08-19T10:53:49;29.90;99.90
36924;DHT22;22841;50.252;18.688;2022-08-19T10:56:17;29.80;99.90
36924;DHT22;22841;50.252;18.688;2022-08-19T10:59:02;29.70;99.90
36924;DHT22;22841;50.252;18.688;2022-08-19T11:01:30;29.80;99.90
36924;DHT22;22841;50.252;18.688;2022-08-19T11:03:57;29.90;99.90
36924;DHT22;22841;50.252;18.688;2022-08-19T11:06:25;29.90;99.90
36924;DHT22;22841;50.252;18.688;2022-08-19T11:08:53;29.90;99.90
36924;DHT22;22841;50.252;18.688;2022-08-19T11:11:21;29.90;99.90
36924;DHT22;22841;50.252;18.688;2022-08-19T11:13:48;29.90;99.90
36924;DHT22;22841;50.252;18.688;2022-08-19T11:16:22;29.90;99.90
36924;DHT22;22841;50.252;18.688;2022-08-19T11:18:51;30.00;99.90
36924;DHT22;22841;50.252;18.688;2022-08-19T11:21:32;30.10;99.90
36924;DHT22;22841;50.252;18.688;2022-08-19T11:24:05;30.30;99.90
36924;DHT22;22841;50.252;18.688;2022-08-19T11:26:32;30.30;98.20
36924;DHT22;22841;50.252;18.688;2022-08-19T11:28:59;30.30;99.90
36924;DHT22;22841;50.252;18.688;2022-08-19T11:31:29;30.50;99.10
36924;DHT22;22841;50.252;18.688;2022-08-19T11:33:58;30.60;75.70
36924;DHT22;22841;50.252;18.688;2022-08-19T11:36:26;30.70;90.00
36924;DHT22;22841;50.252;18.688;2022-08-19T11:38:52;30.60;66.60
36924;DHT22;22841;50.252;18.688;2022-08-19T11:41:20;30.50;56.80
36924;DHT22;22841;50.252;18.688;2022-08-19T11:43:49;30.50;63.40
36924;DHT22;22841;50.252;18.688;2022-08-19T11:46:16;30.40;74.60
36924;DHT22;22841;50.252;18.688;2022-08-19T11:48:43;30.40;60.90
36924;DHT22;22841;50.252;18.688;2022-08-19T11:51:13;30.40;48.10
36924;DHT22;22841;50.252;18.688;2022-08-19T11:53:40;30.50;24.10
36924;DHT22;22841;50.252;18.688;2022-08-19T11:56:08;30.40;42.40
36924;DHT22;22841;50.252;18.688;2022-08-19T11:58:35;30.40;47.40
36924;DHT22;22841;50.252;18.688;2022-08-19T12:01:06;30.40;28.30
36924;DHT22;22841;50.252;18.688;2022-08-19T12:03:33;30.40;28.60
36924;DHT22;22841;50.252;18.688;2022-08-19T12:06:10;30.40;27.10
36924;DHT22;22841;50.252;18.688;2022-08-19T12:08:39;30.30;42.50
36924;DHT22;22841;50.252;18.688;2022-08-19T12:11:05;30.30;33.70
36924;DHT22;22841;50.252;18.688;2022-08-19T12:13:34;30.20;48.10
36924;DHT22;22841;50.252;18.688;2022-08-19T12:16:01;30.20;47.40
36924;DHT22;22841;50.252;18.688;2022-08-19T12:18:32;30.30;50.00
36924;DHT22;22841;50.252;18.688;2022-08-19T12:20:58;30.30;45.40
36924;DHT22;22841;50.252;18.688;2022-08-19T12:23:27;30.40;34.40
36924;DHT22;22841;50.252;18.688;2022-08-19T12:25:54;30.50;25.60
36924;DHT22;22841;50.252;18.688;2022-08-19T12:28:24;30.50;23.50
36924;DHT22;22841;50.252;18.688;2022-08-19T12:30:51;30.50;25.20
36924;DHT22;22841;50.252;18.688;2022-08-19T12:33:18;30.70;13.90
36924;DHT22;22841;50.252;18.688;2022-08-19T12:35:45;30.80;10.10
36924;DHT22;22841;50.252;18.688;2022-08-19T12:38:13;30.80;1.00
36924;DHT22;22841;50.252;18.688;2022-08-19T12:40:41;30.70;3.90
36924;DHT22;22841;50.252;18.688;2022-08-19T12:43:07;30.80;1.00
36924;DHT22;22841;50.252;18.688;2022-08-19T12:45:34;30.90;1.00
36924;DHT22;22841;50.252;18.688;2022-08-19T12:48:00;31.10;1.00
36924;DHT22;22841;50.252;18.688;2022-08-19T12:50:26;31.20;1.00
36924;DHT22;22841;50.252;18.688;2022-08-19T12:52:53;31.20;1.00
36924;DHT22;22841;50.252;18.688;2022-08-19T12:55:19;31.10;1.00
36924;DHT22;22841;50.252;18.688;2022-08-19T12:57:45;31.10;1.00
36924;DHT22;22841;50.252;18.688;2022-08-19T13:00:15;31.00;1.00
36924;DHT22;22841;50.252;18.688;2022-08-19T13:02:45;31.00;1.00
36924;DHT22;22841;50.252;18.688;2022-08-19T13:05:22;31.00;1.00
36924;DHT22;22841;50.252;18.688;2022-08-19T13:07:50;31.10;1.00
36924;DHT22;22841;50.252;18.688;2022-08-19T13:10:20;31.30;1.00
36924;DHT22;22841;50.252;18.688;2022-08-19T13:12:48;31.40;1.00
36924;DHT22;22841;50.252;18.688;2022-08-19T13:15:16;31.40;1.00
36924;DHT22;22841;50.252;18.688;2022-08-19T13:17:46;31.50;1.00
36924;DHT22;22841;50.252;18.688;2022-08-19T13:20:15;31.50;1.00
36924;DHT22;22841;50.252;18.688;2022-08-19T13:22:42;31.40;1.00
36924;DHT22;22841;50.252;18.688;2022-08-19T13:25:09;31.20;1.00
36924;DHT22;22841;50.252;18.688;2022-08-19T13:27:36;31.20;1.00
36924;DHT22;22841;50.252;18.688;2022-08-19T13:30:04;31.20;1.00
36924;DHT22;22841;50.252;18.688;2022-08-19T13:32:49;31.30;1.00
36924;DHT22;22841;50.252;18.688;2022-08-19T13:35:34;31.30;1.00
36924;DHT22;22841;50.252;18.688;2022-08-19T13:38:00;31.30;1.00
36924;DHT22;22841;50.252;18.688;2022-08-19T13:40:31;31.30;1.00
36924;DHT22;22841;50.252;18.688;2022-08-19T13:43:00;31.50;1.00
36924;DHT22;22841;50.252;18.688;2022-08-19T13:45:28;31.50;1.00
36924;DHT22;22841;50.252;18.688;2022-08-19T13:47:56;31.60;1.00
36924;DHT22;22841;50.252;18.688;2022-08-19T13:50:25;31.70;1.00
36924;DHT22;22841;50.252;18.688;2022-08-19T13:52:53;31.70;1.00
36924;DHT22;22841;50.252;18.688;2022-08-19T13:55:20;31.60;1.00
36924;DHT22;22841;50.252;18.688;2022-08-19T13:57:50;31.50;1.00
36924;DHT22;22841;50.252;18.688;2022-08-19T14:00:18;31.50;1.00
36924;DHT22;22841;50.252;18.688;2022-08-19T14:02:46;31.40;1.00
36924;DHT22;22841;50.252;18.688;2022-08-19T14:05:14;31.30;1.00
36924;DHT22;22841;50.252;18.688;2022-08-19T14:07:41;31.20;1.00
36924;DHT22;22841;50.252;18.688;2022-08-19T14:10:09;31.10;1.00
36924;DHT22;22841;50.252;18.688;2022-08-19T14:12:36;31.20;1.00
36924;DHT22;22841;50.252;18.688;2022-08-19T14:15:04;31.20;1.00
36924;DHT22;22841;50.252;18.688;2022-08-19T14:17:32;31.40;1.00
36924;DHT22;22841;50.252;18.688;2022-08-19T14:20:06;31.50;1.00
36924;DHT22;22841;50.252;18.688;2022-08-19T14:22:39;31.50;1.00
36924;DHT22;22841;50.252;18.688;2022-08-19T14:25:11;31.60;1.00
36924;DHT22;22841;50.252;18.688;2022-08-19T14:27:39;31.70;1.00
36924;DHT22;22841;50.252;18.688;2022-08-19T14:30:11;31.70;1.00
36924;DHT22;22841;50.252;18.688;2022-08-19T14:32:37;31.80;1.00
36924;DHT22;22841;50.252;18.688;2022-08-19T14:35:04;31.80;1.00
36924;DHT22;22841;50.252;18.688;2022-08-19T14:37:31;31.80;1.00
36924;DHT22;22841;50.252;18.688;2022-08-19T14:39:58;31.90;1.00
36924;DHT22;22841;50.252;18.688;2022-08-19T14:42:24;31.90;1.00
36924;DHT22;22841;50.252;18.688;2022-08-19T14:44:50;31.90;1.00
36924;DHT22;22841;50.252;18.688;2022-08-19T14:47:16;31.80;1.00
36924;DHT22;22841;50.252;18.688;2022-08-19T14:49:42;31.80;1.00
36924;DHT22;22841;50.252;18.688;2022-08-19T14:52:09;31.70;1.00
36924;DHT22;22841;50.252;18.688;2022-08-19T14:54:35;31.60;1.00
36924;DHT22;22841;50.252;18.688;2022-08-19T14:57:01;31.60;1.00
36924;DHT22;22841;50.252;18.688;2022-08-19T14:59:27;31.50;1.00
36924;DHT22;22841;50.252;18.688;2022-08-19T15:01:53;31.50;1.00
36924;DHT22;22841;50.252;18.688;2022-08-19T15:04:19;31.40;1.00
36924;DHT22;22841;50.252;18.688;2022-08-19T15:06:45;31.40;1.00
36924;DHT22;22841;50.252;18.688;2022-08-19T15:09:11;31.30;1.00
36924;DHT22;22841;50.252;18.688;2022-08-19T15:11:37;31.30;1.00
36924;DHT22;22841;50.252;18.688;2022-08-19T15:14:04;31.20;1.00
36924;DHT22;22841;50.252;18.688;2022-08-19T15:16:35;31.20;1.00
36924;DHT22;22841;50.252;18.688;2022-08-19T15:19:05;31.20;1.00
36924;DHT22;22841;50.252;18.688;2022-08-19T15:21:31;31.10;1.00
36924;DHT22;22841;50.252;18.688;2022-08-19T15:23:58;31.00;1.00
36924;DHT22;22841;50.252;18.688;2022-08-19T15:26:24;30.90;1.00
36924;DHT22;22841;50.252;18.688;2022-08-19T15:29:01;30.70;1.00
36924;DHT22;22841;50.252;18.688;2022-08-19T15:31:29;30.60;1.00
36924;DHT22;22841;50.252;18.688;2022-08-19T15:34:02;30.50;1.00
36924;DHT22;22841;50.252;18.688;2022-08-19T15:36:29;30.40;1.00
36924;DHT22;22841;50.252;18.688;2022-08-19T15:38:56;30.20;1.00
36924;DHT22;22841;50.252;18.688;2022-08-19T15:41:25;30.10;1.00
36924;DHT22;22841;50.252;18.688;2022-08-19T15:44:00;30.00;1.00
36924;DHT22;22841;50.252;18.688;2022-08-19T15:46:30;29.80;1.00
36924;DHT22;22841;50.252;18.688;2022-08-19T15:48:58;29.70;1.00